createdAt,value
2019-06-15T00:01:56.559Z,22.60
2019-06-15T00:04:30.040Z,22.60
2019-06-15T00:07:03.585Z,22.60
2019-06-15T00:09:37.786Z,22.60
2019-06-15T00:12:11.316Z,22.60
2019-06-15T00:14:44.710Z,22.60
2019-06-15T00:17:19.090Z,22.60
2019-06-15T00:19:53.989Z,22.50
2019-06-15T00:22:27.270Z,22.30
2019-06-15T00:25:00.419Z,22.10
2019-06-15T00:27:34.080Z,21.80
2019-06-15T00:30:09.040Z,21.60
2019-06-15T00:32:42.629Z,21.30
2019-06-15T00:35:17.121Z,21.10
2019-06-15T00:37:49.817Z,21.00
2019-06-15T00:40:23.036Z,21.00
2019-06-15T00:42:55.585Z,20.70
2019-06-15T00:45:29.153Z,20.70
2019-06-15T00:48:02.377Z,20.60
2019-06-15T00:50:35.933Z,20.60
2019-06-15T00:53:09.673Z,20.50
2019-06-15T00:55:42.728Z,20.30
2019-06-15T00:58:15.890Z,20.20
2019-06-15T01:00:50.080Z,20.20
2019-06-15T01:03:23.642Z,20.10
2019-06-15T01:05:57.315Z,19.90
2019-06-15T01:08:30.126Z,19.80
2019-06-15T01:11:03.405Z,19.90
2019-06-15T01:13:37.065Z,20.00
2019-06-15T01:16:10.309Z,19.90
2019-06-15T01:18:43.094Z,19.90
2019-06-15T01:21:17.281Z,19.80
2019-06-15T01:23:50.773Z,19.80
2019-06-15T01:26:24.483Z,19.70
2019-06-15T01:28:57.836Z,19.80
2019-06-15T01:31:31.301Z,19.80
2019-06-15T01:34:04.583Z,19.80
2019-06-15T01:36:37.634Z,19.80
2019-06-15T01:39:11.449Z,19.90
2019-06-15T01:41:44.791Z,19.90
2019-06-15T01:44:18.269Z,19.90
2019-06-15T01:46:53.215Z,19.90
2019-06-15T01:49:26.069Z,19.90
2019-06-15T01:51:59.350Z,19.80
2019-06-15T01:54:32.995Z,19.70
2019-06-15T01:57:07.732Z,19.60
2019-06-15T01:59:40.781Z,19.70
2019-06-15T02:02:13.987Z,19.90
2019-06-15T02:04:47.295Z,19.60
2019-06-15T02:07:20.780Z,19.80
2019-06-15T02:09:54.145Z,19.70
2019-06-15T02:12:27.689Z,19.80
2019-06-15T02:15:01.032Z,20.20
2019-06-15T02:17:34.183Z,20.20
2019-06-15T02:20:07.967Z,20.20
2019-06-15T02:22:40.969Z,20.10
2019-06-15T02:25:14.351Z,20.10
2019-06-15T02:27:48.078Z,20.00
2019-06-15T02:30:28.288Z,19.90
2019-06-15T02:33:02.401Z,19.90
2019-06-15T02:35:35.884Z,19.90
2019-06-15T02:38:09.645Z,19.90
2019-06-15T02:40:42.918Z,19.80
2019-06-15T02:43:16.043Z,19.80
2019-06-15T02:45:48.958Z,19.70
2019-06-15T02:48:22.338Z,19.60
2019-06-15T02:50:55.503Z,19.60
2019-06-15T02:53:29.757Z,19.60
2019-06-15T02:56:03.507Z,19.50
2019-06-15T02:58:37.071Z,19.40
2019-06-15T03:01:10.914Z,19.20
2019-06-15T03:03:44.131Z,19.10
2019-06-15T03:06:18.248Z,19.10
2019-06-15T03:08:52.129Z,19.00
2019-06-15T03:11:25.662Z,18.90
2019-06-15T03:14:00.427Z,18.90
2019-06-15T03:16:34.086Z,18.90
2019-06-15T03:19:07.084Z,18.80
2019-06-15T03:21:40.685Z,18.80
2019-06-15T03:24:13.781Z,18.80
2019-06-15T03:26:47.342Z,18.80
2019-06-15T03:29:21.587Z,18.80
2019-06-15T03:31:55.060Z,18.70
2019-06-15T03:34:28.620Z,18.70
2019-06-15T03:37:02.001Z,18.70
2019-06-15T03:39:35.076Z,18.70
2019-06-15T03:42:08.255Z,18.70
2019-06-15T03:44:41.557Z,18.60
2019-06-15T03:47:15.281Z,18.60
2019-06-15T03:49:49.653Z,18.50
2019-06-15T03:52:22.547Z,18.40
2019-06-15T03:54:55.988Z,18.40
2019-06-15T03:57:29.247Z,18.40
2019-06-15T04:00:02.578Z,18.40
2019-06-15T04:02:35.570Z,18.50
2019-06-15T04:05:08.667Z,18.50
2019-06-15T04:07:42.690Z,18.50
2019-06-15T04:10:17.137Z,18.50
2019-06-15T04:12:49.746Z,18.50
2019-06-15T04:15:23.000Z,18.50
2019-06-15T04:17:56.605Z,18.50
2019-06-15T04:20:30.293Z,18.50
2019-06-15T04:23:04.005Z,18.50
2019-06-15T04:25:37.992Z,18.50
2019-06-15T04:28:11.767Z,18.50
2019-06-15T04:30:45.708Z,18.50
2019-06-15T04:33:19.287Z,18.50
2019-06-15T04:35:52.387Z,18.60
2019-06-15T04:38:26.153Z,18.50
2019-06-15T04:41:01.650Z,18.60
2019-06-15T04:43:34.865Z,18.70
2019-06-15T04:46:08.478Z,18.60
2019-06-15T04:48:42.172Z,18.60
2019-06-15T04:51:15.953Z,18.60
2019-06-15T04:53:49.469Z,18.70
2019-06-15T04:56:22.973Z,18.80
2019-06-15T04:58:56.260Z,19.00
2019-06-15T05:01:29.838Z,19.20
2019-06-15T05:04:03.714Z,19.40
2019-06-15T05:06:39.608Z,19.50
2019-06-15T05:09:13.772Z,19.70
2019-06-15T05:11:47.111Z,19.80
2019-06-15T05:14:20.858Z,19.90
2019-06-15T05:16:54.228Z,19.90
2019-06-15T05:19:28.567Z,20.10
2019-06-15T05:22:02.588Z,20.20
2019-06-15T05:24:36.771Z,20.30
2019-06-15T05:27:10.557Z,20.40
2019-06-15T05:29:44.741Z,20.50
2019-06-15T05:32:18.344Z,20.50
2019-06-15T05:34:51.879Z,20.60
2019-06-15T05:37:25.546Z,20.80
2019-06-15T05:39:59.508Z,20.90
2019-06-15T05:42:33.079Z,21.00
2019-06-15T05:45:07.559Z,21.20
2019-06-15T05:47:41.402Z,21.40
2019-06-15T05:50:15.774Z,21.50
2019-06-15T05:52:49.881Z,21.80
2019-06-15T05:55:23.948Z,22.00
2019-06-15T05:57:58.973Z,22.10
2019-06-15T06:00:32.781Z,22.10
2019-06-15T06:03:06.410Z,22.40
2019-06-15T06:05:40.371Z,22.70
2019-06-15T06:08:22.714Z,22.80
2019-06-15T06:10:57.151Z,23.10
2019-06-15T06:13:31.213Z,23.40
2019-06-15T06:16:05.618Z,23.50
2019-06-15T06:18:39.351Z,23.60
2019-06-15T06:21:13.216Z,23.70
2019-06-15T06:23:47.846Z,23.90
2019-06-15T06:26:21.853Z,24.10
2019-06-15T06:28:57.460Z,24.30
2019-06-15T06:31:30.662Z,24.70
2019-06-15T06:34:05.022Z,25.10
2019-06-15T06:36:39.696Z,25.70
2019-06-15T06:39:15.265Z,25.90
2019-06-15T06:41:49.594Z,26.40
2019-06-15T06:44:23.706Z,27.00
2019-06-15T06:46:57.619Z,27.10
2019-06-15T06:49:32.526Z,27.50
2019-06-15T06:52:06.190Z,27.60
2019-06-15T06:54:40.251Z,27.40
2019-06-15T06:57:14.881Z,27.70
2019-06-15T06:59:51.205Z,28.10
2019-06-15T07:02:26.689Z,28.40
2019-06-15T07:05:01.754Z,28.70
2019-06-15T07:07:35.731Z,29.00
2019-06-15T07:10:11.172Z,29.00
2019-06-15T07:12:46.296Z,29.20
2019-06-15T07:15:22.476Z,29.30
2019-06-15T07:17:58.501Z,29.30
2019-06-15T07:20:32.169Z,29.30
2019-06-15T07:23:05.563Z,29.40
2019-06-15T07:25:39.338Z,29.20
2019-06-15T07:28:14.036Z,29.70
2019-06-15T07:30:49.568Z,30.10
2019-06-15T07:33:24.245Z,30.40
2019-06-15T07:35:59.551Z,30.80
2019-06-15T07:38:38.039Z,30.80
2019-06-15T07:41:13.854Z,30.70
2019-06-15T07:43:49.864Z,31.20
2019-06-15T07:46:29.032Z,31.40
2019-06-15T07:49:05.432Z,30.90
2019-06-15T07:51:39.496Z,30.90
2019-06-15T07:54:13.732Z,31.00
2019-06-15T07:56:50.269Z,31.00
2019-06-15T07:59:24.331Z,30.90
2019-06-15T08:01:59.751Z,31.30
2019-06-15T08:04:34.851Z,31.60
2019-06-15T08:07:10.041Z,31.20
2019-06-15T08:09:45.139Z,31.50
2019-06-15T08:12:19.056Z,31.30
2019-06-15T08:14:52.899Z,31.90
2019-06-15T08:17:29.468Z,32.00
2019-06-15T08:20:06.557Z,31.80
2019-06-15T08:22:39.856Z,31.20
2019-06-15T08:25:15.034Z,31.40
2019-06-15T08:27:49.254Z,31.40
2019-06-15T08:30:35.638Z,32.50
2019-06-15T08:33:11.697Z,33.10
2019-06-15T08:35:46.006Z,32.60
2019-06-15T08:38:24.403Z,32.30
2019-06-15T08:40:58.286Z,31.40
2019-06-15T08:43:32.888Z,32.40
2019-06-15T08:46:08.836Z,33.00
2019-06-15T08:48:44.559Z,33.30
2019-06-15T08:51:19.100Z,32.70
2019-06-15T08:53:53.945Z,33.50
2019-06-15T08:56:29.225Z,33.00
2019-06-15T08:59:05.606Z,34.00
2019-06-15T09:01:41.209Z,33.30
2019-06-15T09:04:14.716Z,31.90
2019-06-15T09:06:48.368Z,32.10
2019-06-15T09:09:22.269Z,32.70
2019-06-15T09:11:55.590Z,31.60
2019-06-15T09:14:29.606Z,31.80
2019-06-15T09:17:04.642Z,32.20
2019-06-15T09:19:38.654Z,31.40
2019-06-15T09:22:13.042Z,31.50
2019-06-15T09:24:48.465Z,32.20
2019-06-15T09:27:25.681Z,32.70
2019-06-15T09:30:00.595Z,32.40
2019-06-15T09:32:38.205Z,32.90
2019-06-15T09:35:12.319Z,33.00
2019-06-15T09:37:46.952Z,33.50
2019-06-15T09:40:21.691Z,32.30
2019-06-15T09:42:55.683Z,32.70
2019-06-15T09:45:33.132Z,33.30
2019-06-15T09:48:07.273Z,34.00
2019-06-15T09:51:00.713Z,33.50
2019-06-15T09:53:33.963Z,34.10
2019-06-15T09:56:14.297Z,34.40
2019-06-15T09:58:46.948Z,34.30
2019-06-15T10:01:23.040Z,33.50
2019-06-15T10:03:57.646Z,34.20
2019-06-15T10:06:32.423Z,34.50
2019-06-15T10:09:08.738Z,33.80
2019-06-15T10:11:44.075Z,34.10
2019-06-15T10:14:18.213Z,33.50
2019-06-15T10:16:52.073Z,34.60
2019-06-15T10:19:27.625Z,33.20
2019-06-15T10:22:01.576Z,33.40
2019-06-15T10:24:35.076Z,33.10
2019-06-15T10:27:08.216Z,32.40
2019-06-15T10:29:43.105Z,31.50
2019-06-15T10:32:21.168Z,31.50
2019-06-15T10:34:55.338Z,31.30
2019-06-15T10:37:30.820Z,31.00
2019-06-15T10:40:05.249Z,31.50
2019-06-15T10:42:39.475Z,31.30
2019-06-15T10:45:15.001Z,30.90
2019-06-15T10:47:49.757Z,30.80
2019-06-15T10:50:23.904Z,31.00
2019-06-15T10:52:57.763Z,31.90
2019-06-15T10:55:31.824Z,32.30
2019-06-15T10:58:05.085Z,32.50
2019-06-15T11:00:39.590Z,31.70
2019-06-15T11:03:13.234Z,31.30
2019-06-15T11:05:47.112Z,31.50
2019-06-15T11:08:20.883Z,30.90
2019-06-15T11:11:10.405Z,31.10
2019-06-15T11:13:44.368Z,31.00
2019-06-15T11:16:18.722Z,31.80
2019-06-15T11:18:52.535Z,32.80
2019-06-15T11:21:31.709Z,33.50
2019-06-15T11:24:05.047Z,34.30
2019-06-15T11:26:41.855Z,34.80
2019-06-15T11:29:13.761Z,35.60
2019-06-15T11:31:47.285Z,34.30
2019-06-15T11:34:20.374Z,34.20
2019-06-15T11:36:55.498Z,32.40
2019-06-15T11:39:28.530Z,31.80
2019-06-15T11:42:02.893Z,31.70
2019-06-15T11:44:37.051Z,32.50
2019-06-15T11:47:11.813Z,33.10
2019-06-15T11:49:46.371Z,32.70
2019-06-15T11:52:22.143Z,32.60
2019-06-15T11:54:59.322Z,31.70
2019-06-15T11:57:35.976Z,32.10
2019-06-15T12:00:10.209Z,31.60
2019-06-15T12:02:49.086Z,32.70
2019-06-15T12:05:28.421Z,33.50
2019-06-15T12:08:20.501Z,33.50
2019-06-15T12:10:56.688Z,33.70
2019-06-15T12:13:30.525Z,33.60
2019-06-15T12:16:05.336Z,33.90
2019-06-15T12:18:39.358Z,33.70
2019-06-15T12:21:14.223Z,34.50
2019-06-15T12:23:48.146Z,34.90
2019-06-15T12:26:24.526Z,34.70
2019-06-15T12:29:00.467Z,35.40
2019-06-15T12:31:34.744Z,36.00
2019-06-15T12:34:13.621Z,36.10
2019-06-15T12:36:47.505Z,36.10
2019-06-15T12:39:21.117Z,36.30
2019-06-15T12:41:54.924Z,36.50
2019-06-15T12:44:28.466Z,36.20
2019-06-15T12:47:04.564Z,36.20
2019-06-15T12:49:38.380Z,36.10
2019-06-15T12:52:13.859Z,36.70
2019-06-15T12:54:47.275Z,37.00
2019-06-15T12:57:20.500Z,36.70
2019-06-15T12:59:54.115Z,36.80
2019-06-15T13:02:27.321Z,36.70
2019-06-15T13:05:00.941Z,36.60
2019-06-15T13:07:37.941Z,37.00
2019-06-15T13:10:12.083Z,37.20
2019-06-15T13:12:46.723Z,37.20
2019-06-15T13:15:22.593Z,36.80
2019-06-15T13:17:55.821Z,36.10
2019-06-15T13:20:30.768Z,35.70
2019-06-15T13:23:04.327Z,35.40
2019-06-15T13:25:43.180Z,35.10
2019-06-15T13:28:16.803Z,35.10
2019-06-15T13:30:52.375Z,35.00
2019-06-15T13:33:26.667Z,35.20
2019-06-15T13:36:01.501Z,35.50
2019-06-15T13:38:35.246Z,35.60
2019-06-15T13:41:08.763Z,35.80
2019-06-15T13:43:43.281Z,36.00
2019-06-15T13:46:17.170Z,36.00
2019-06-15T13:48:51.446Z,35.60
2019-06-15T13:51:25.886Z,35.20
2019-06-15T13:53:59.515Z,35.00
2019-06-15T13:56:34.259Z,34.80
2019-06-15T13:59:11.532Z,35.10
2019-06-15T14:01:45.692Z,35.40
2019-06-15T14:04:22.754Z,35.50
2019-06-15T14:06:57.444Z,35.90
2019-06-15T14:09:31.818Z,35.70
2019-06-15T14:12:07.280Z,35.40
2019-06-15T14:14:41.725Z,35.10
2019-06-15T14:17:16.399Z,34.90
2019-06-15T14:19:51.896Z,34.80
2019-06-15T14:22:26.740Z,34.60
2019-06-15T14:25:40.855Z,34.60
2019-06-15T14:28:16.573Z,34.90
2019-06-15T14:30:51.440Z,34.90
2019-06-15T14:33:32.354Z,34.60
2019-06-15T14:36:08.262Z,34.50
2019-06-15T14:38:42.941Z,34.80
2019-06-15T14:41:20.518Z,34.90
2019-06-15T14:43:54.765Z,35.10
2019-06-15T14:46:29.346Z,34.90
2019-06-15T14:49:05.123Z,34.70
2019-06-15T14:51:38.789Z,34.70
2019-06-15T14:54:13.245Z,34.50
2019-06-15T14:56:47.311Z,34.40
2019-06-15T14:59:21.535Z,34.40
2019-06-15T15:02:09.512Z,34.30
2019-06-15T15:04:32.576Z,34.20
2019-06-15T15:07:06.954Z,34.10
2019-06-15T15:09:49.715Z,34.10
2019-06-15T15:12:22.332Z,34.20
2019-06-15T15:14:57.086Z,34.00
2019-06-15T15:17:31.646Z,34.10
2019-06-15T15:20:07.124Z,34.20
2019-06-15T15:22:41.917Z,34.10
2019-06-15T15:25:16.974Z,33.90
2019-06-15T15:27:52.016Z,33.50
2019-06-15T15:30:38.500Z,33.40
2019-06-15T15:33:12.618Z,33.10
2019-06-15T15:35:46.709Z,33.20
2019-06-15T15:38:21.685Z,33.40
2019-06-15T15:40:57.893Z,33.60
2019-06-15T15:43:31.625Z,33.20
2019-06-15T15:46:07.182Z,33.20
2019-06-15T15:48:40.819Z,33.10
2019-06-15T15:51:17.101Z,33.30
2019-06-15T15:53:53.258Z,33.20
2019-06-15T15:56:28.139Z,33.20
2019-06-15T15:59:06.806Z,33.10
2019-06-15T16:01:40.282Z,33.00
2019-06-15T16:04:13.313Z,32.90
2019-06-15T16:06:47.315Z,32.80
2019-06-15T16:09:20.760Z,32.80
2019-06-15T16:11:56.589Z,32.60
2019-06-15T16:14:31.216Z,32.50
2019-06-15T16:17:06.695Z,32.20
2019-06-15T16:19:41.393Z,32.10
2019-06-15T16:22:15.318Z,32.00
2019-06-15T16:24:49.366Z,32.00
2019-06-15T16:27:23.607Z,31.90
2019-06-15T16:29:57.455Z,31.90
2019-06-15T16:32:32.064Z,31.80
2019-06-15T16:35:09.209Z,31.70
2019-06-15T16:37:44.263Z,31.60
2019-06-15T16:40:26.774Z,31.50
2019-06-15T16:43:00.570Z,31.50
2019-06-15T16:45:35.327Z,31.40
2019-06-15T16:48:09.164Z,31.30
2019-06-15T16:50:42.940Z,31.10
2019-06-15T16:53:18.687Z,30.80
2019-06-15T16:55:53.055Z,30.70
2019-06-15T16:58:27.251Z,30.70
2019-06-15T17:01:00.877Z,30.60
2019-06-15T17:03:36.687Z,30.60
2019-06-15T17:06:10.624Z,30.50
2019-06-15T17:08:46.534Z,30.40
2019-06-15T17:11:20.334Z,30.50
2019-06-15T17:13:56.303Z,30.40
2019-06-15T17:16:30.666Z,30.40
2019-06-15T17:19:07.107Z,30.40
2019-06-15T17:21:41.251Z,30.30
2019-06-15T17:24:17.163Z,30.20
2019-06-15T17:26:51.770Z,30.10
2019-06-15T17:29:26.400Z,30.00
2019-06-15T17:31:59.876Z,29.90
2019-06-15T17:34:36.347Z,29.70
2019-06-15T17:37:09.145Z,29.60
2019-06-15T17:39:43.139Z,29.40
2019-06-15T17:42:18.379Z,29.40
2019-06-15T17:44:59.902Z,29.30
2019-06-15T17:47:33.823Z,29.20
2019-06-15T17:50:08.905Z,29.10
2019-06-15T17:52:42.508Z,29.00
2019-06-15T17:55:17.898Z,28.90
2019-06-15T17:57:52.436Z,28.90
2019-06-15T18:00:31.415Z,28.80
2019-06-15T18:03:06.862Z,28.70
2019-06-15T18:05:41.195Z,28.60
2019-06-15T18:08:16.945Z,28.50
2019-06-15T18:10:50.300Z,28.40
2019-06-15T18:13:23.793Z,28.40
2019-06-15T18:16:00.405Z,28.30
2019-06-15T18:18:42.149Z,28.20
2019-06-15T18:21:16.367Z,28.10
2019-06-15T18:23:49.851Z,28.00
2019-06-15T18:26:23.454Z,28.00
2019-06-15T18:29:00.241Z,27.80
2019-06-15T18:31:36.433Z,27.80
2019-06-15T18:34:16.708Z,27.70
2019-06-15T18:36:49.355Z,27.60
2019-06-15T18:39:26.414Z,27.50
2019-06-15T18:42:00.276Z,27.40
2019-06-15T18:44:36.654Z,27.20
2019-06-15T18:47:11.808Z,27.20
2019-06-15T18:49:47.322Z,27.10
2019-06-15T18:52:22.241Z,27.00
2019-06-15T18:54:57.300Z,26.90
2019-06-15T18:57:36.963Z,26.90
2019-06-15T19:00:12.018Z,26.80
2019-06-15T19:02:46.507Z,26.70
2019-06-15T19:05:19.805Z,26.50
2019-06-15T19:07:56.588Z,26.40
2019-06-15T19:10:35.163Z,26.20
2019-06-15T19:13:09.643Z,26.10
2019-06-15T19:15:43.288Z,25.90
2019-06-15T19:18:18.011Z,25.70
2019-06-15T19:20:53.377Z,25.60
2019-06-15T19:23:30.220Z,25.40
2019-06-15T19:26:06.321Z,25.30
2019-06-15T19:28:41.336Z,25.10
2019-06-15T19:31:15.708Z,25.10
2019-06-15T19:33:56.770Z,25.00
2019-06-15T19:36:29.298Z,24.90
2019-06-15T19:39:06.164Z,24.70
2019-06-15T19:41:39.631Z,24.50
2019-06-15T19:44:13.433Z,24.50
2019-06-15T19:46:49.210Z,24.40
2019-06-15T19:49:22.558Z,24.40
2019-06-15T19:51:57.282Z,24.30
2019-06-15T19:54:31.346Z,24.10
2019-06-15T19:57:06.827Z,24.10
2019-06-15T19:59:41.485Z,24.00
2019-06-15T20:02:17.146Z,23.80
2019-06-15T20:05:00.421Z,23.80
2019-06-15T20:07:26.404Z,23.70
2019-06-15T20:10:00.081Z,23.70
2019-06-15T20:12:34.211Z,23.70
2019-06-15T20:15:08.966Z,23.60
2019-06-15T20:17:43.002Z,23.50
2019-06-15T20:20:17.878Z,23.30
2019-06-15T20:22:51.815Z,23.20
2019-06-15T20:25:26.902Z,23.00
2019-06-15T20:28:01.089Z,22.80
2019-06-15T20:30:37.525Z,22.70
2019-06-15T20:33:12.097Z,22.60
2019-06-15T20:35:47.480Z,22.50
2019-06-15T20:38:21.289Z,22.50
2019-06-15T20:40:56.603Z,22.40
2019-06-15T20:43:30.645Z,22.40
2019-06-15T20:46:06.810Z,22.30
2019-06-15T20:48:40.435Z,22.30
2019-06-15T20:51:17.461Z,22.20
2019-06-15T20:53:51.953Z,22.10
2019-06-15T20:56:26.618Z,22.00
2019-06-15T20:59:02.107Z,21.90
2019-06-15T21:01:37.953Z,21.80
2019-06-15T21:04:12.155Z,21.70
2019-06-15T21:06:47.573Z,21.70
2019-06-15T21:09:20.870Z,21.60
2019-06-15T21:11:54.337Z,21.60
2019-06-15T21:14:28.747Z,21.50
2019-06-15T21:17:03.318Z,21.50
2019-06-15T21:19:37.313Z,21.50
2019-06-15T21:22:10.827Z,21.50
2019-06-15T21:24:46.399Z,21.30
2019-06-15T21:27:26.893Z,21.30
2019-06-15T21:30:00.296Z,21.30
2019-06-15T21:32:36.978Z,21.20
2019-06-15T21:35:11.763Z,21.20
2019-06-15T21:37:46.411Z,21.20
2019-06-15T21:40:23.116Z,21.10
2019-06-15T21:42:57.780Z,21.10
2019-06-15T21:45:32.167Z,21.00
2019-06-15T21:48:07.013Z,20.90
2019-06-15T21:50:41.108Z,20.90
2019-06-15T21:53:16.173Z,20.90
2019-06-15T21:55:50.158Z,20.90
2019-06-15T21:58:27.198Z,20.90
2019-06-15T22:01:18.850Z,20.80
2019-06-15T22:03:52.741Z,20.80
2019-06-15T22:06:29.071Z,20.70
2019-06-15T22:09:06.477Z,20.50
2019-06-15T22:11:40.775Z,20.40
2019-06-15T22:14:16.997Z,20.30
2019-06-15T22:16:50.286Z,20.20
2019-06-15T22:19:26.173Z,20.20
2019-06-15T22:22:00.860Z,20.10
2019-06-15T22:24:36.253Z,20.10
2019-06-15T22:27:10.485Z,20.10
2019-06-15T22:29:47.231Z,20.10
2019-06-15T22:32:21.174Z,20.10
2019-06-15T22:34:56.311Z,20.10
2019-06-15T22:37:30.718Z,20.10
2019-06-15T22:40:07.471Z,20.00
2019-06-15T22:42:40.675Z,19.80
2019-06-15T22:45:17.237Z,19.70
2019-06-15T22:47:51.135Z,19.70
2019-06-15T22:50:24.567Z,19.70
2019-06-15T22:52:58.500Z,19.60
2019-06-15T22:55:31.675Z,19.50
2019-06-15T22:58:06.435Z,19.40
2019-06-15T23:00:40.441Z,19.40
2019-06-15T23:03:16.648Z,19.30
2019-06-15T23:05:49.507Z,19.20
2019-06-15T23:08:23.050Z,19.20
2019-06-15T23:10:57.110Z,19.20
2019-06-15T23:13:31.377Z,19.10
2019-06-15T23:16:07.359Z,19.10
2019-06-15T23:18:41.194Z,19.10
2019-06-15T23:21:20.623Z,19.10
2019-06-15T23:23:56.313Z,19.10
2019-06-15T23:26:31.640Z,19.10
2019-06-15T23:29:06.973Z,19.00
2019-06-15T23:31:41.081Z,19.00
2019-06-15T23:34:16.346Z,19.10
2019-06-15T23:36:57.342Z,19.00
2019-06-15T23:39:28.457Z,19.00
2019-06-15T23:42:02.361Z,18.80
2019-06-15T23:44:36.251Z,18.80
2019-06-15T23:47:10.207Z,18.70
2019-06-15T23:49:45.996Z,18.60
2019-06-15T23:52:19.868Z,18.60
2019-06-15T23:54:53.572Z,18.50
2019-06-15T23:57:36.763Z,18.50
